Time;durP1;ratioP1;P1;durP2;ratioP2;P2;SDS_P1;SDS_P2;PMS_P1;PMS_P2;Temp;Humidity;BMP_temperature;BMP_pressure;BME280_temperature;BME280_humidity;BME280_pressure;Samples;Min_cycle;Max_cycle;Signal;HPM_P1;HPM_P2
2023/01/25 00:00:11;;;;;;;57.70;40.37;;;;;;;;;;5072600;28;20204;-82
2023/01/25 00:02:37;;;;;;;54.10;37.63;;;;;;;;;;5051010;28;20231;-80
2023/01/25 00:05:03;;;;;;;52.00;37.33;;;;;;;;;;5063597;28;20189;-82
2023/01/25 00:07:29;;;;;;;43.10;30.57;;;;;;;;;;5054556;28;20641;-80
2023/01/25 00:09:55;;;;;;;47.87;33.37;;;;;;;;;;5052707;28;20173;-82
2023/01/25 00:12:21;;;;;;;54.80;37.33;;;;;;;;;;5072157;28;20515;-85
2023/01/25 00:14:47;;;;;;;49.70;35.50;;;;;;;;;;5053447;28;20209;-84
2023/01/25 00:17:13;;;;;;;48.90;35.63;;;;;;;;;;5060357;28;20184;-83
2023/01/25 00:19:39;;;;;;;51.13;34.63;;;;;;;;;;5055626;28;20189;-80
2023/01/25 00:22:05;;;;;;;37.20;26.50;;;;;;;;;;5053194;28;20211;-80
2023/01/25 00:24:31;;;;;;;32.77;23.40;;;;;;;;;;5051161;28;20177;-81
2023/01/25 00:26:57;;;;;;;25.87;20.27;;;;;;;;;;5050553;28;20189;-84
2023/01/25 00:29:23;;;;;;;27.10;20.40;;;;;;;;;;5061835;28;20196;-82
2023/01/25 00:31:49;;;;;;;33.60;24.57;;;;;;;;;;5053838;28;20191;-84
2023/01/25 00:34:24;;;;;;;19.90;14.73;;;;;;;;;;5051605;28;20208;-81
2023/01/25 00:36:56;;;;;;;21.77;15.53;;;;;;;;;;5071895;28;20172;-81
2023/01/25 00:39:23;;;;;;;26.60;19.90;;;;;;;;;;5081288;28;20252;-82
2023/01/25 00:41:49;;;;;;;32.73;24.63;;;;;;;;;;5057867;28;20222;-81
2023/01/25 00:44:15;;;;;;;28.40;21.13;;;;;;;;;;5060849;28;20185;-81
2023/01/25 00:46:41;;;;;;;27.87;20.83;;;;;;;;;;5057761;28;20177;-82
2023/01/25 00:49:18;;;;;;;21.87;17.47;;;;;;;;;;5078385;28;20269;-80
2023/01/25 00:51:44;;;;;;;19.20;15.93;;;;;;;;;;5057283;28;20176;-81
2023/01/25 00:54:10;;;;;;;20.10;14.80;;;;;;;;;;5060806;28;20184;-83
2023/01/25 00:56:36;;;;;;;20.37;15.33;;;;;;;;;;5090546;28;20180;-84
2023/01/25 00:59:02;;;;;;;20.23;13.63;;;;;;;;;;5054445;28;20731;-82
2023/01/25 01:01:28;;;;;;;16.97;13.13;;;;;;;;;;5081539;28;20185;-80
2023/01/25 01:03:54;;;;;;;17.80;13.63;;;;;;;;;;5073713;28;20239;-80
2023/01/25 01:06:20;;;;;;;17.53;14.03;;;;;;;;;;5067072;28;20208;-81
2023/01/25 01:08:46;;;;;;;20.10;15.30;;;;;;;;;;5071027;28;20180;-80
2023/01/25 01:11:12;;;;;;;18.30;14.70;;;;;;;;;;5057849;28;20238;-80
2023/01/25 01:13:39;;;;;;;19.13;15.70;;;;;;;;;;5071410;28;20173;-80
2023/01/25 01:16:10;;;;;;;19.60;15.67;;;;;;;;;;5054952;28;20670;-81
2023/01/25 01:18:46;;;;;;;19.53;14.87;;;;;;;;;;5073864;28;20173;-80
2023/01/25 01:21:12;;;;;;;13.77;11.37;;;;;;;;;;5056607;28;20640;-81
2023/01/25 01:23:38;;;;;;;12.03;9.67;;;;;;;;;;5055732;28;20195;-80
2023/01/25 01:26:06;;;;;;;12.53;9.63;;;;;;;;;;5054828;28;20660;-81
2023/01/25 01:28:33;;;;;;;13.67;9.77;;;;;;;;;;5055932;28;20549;-81
2023/01/25 01:31:03;;;;;;;14.00;10.47;;;;;;;;;;5054844;28;20655;-81
2023/01/25 01:33:29;;;;;;;16.70;13.03;;;;;;;;;;5053294;28;20182;-81
2023/01/25 01:35:55;;;;;;;18.03;12.83;;;;;;;;;;5055836;28;20204;-81
2023/01/25 01:38:36;;;;;;;17.57;12.80;;;;;;;;;;5072293;28;20618;-81
2023/01/25 01:41:02;;;;;;;12.40;9.90;;;;;;;;;;5057367;28;20181;-80
2023/01/25 01:43:31;;;;;;;13.03;9.40;;;;;;;;;;5056271;28;20545;-81
2023/01/25 01:45:59;;;;;;;11.10;9.10;;;;;;;;;;5054706;28;20268;-81
2023/01/25 01:48:32;;;;;;;12.83;10.10;;;;;;;;;;5073269;28;20189;-81
2023/01/25 01:51:03;;;;;;;13.67;10.60;;;;;;;;;;5072095;28;20735;-81
2023/01/25 01:53:32;;;;;;;13.93;11.27;;;;;;;;;;5056187;28;20188;-81
2023/01/25 01:56:00;;;;;;;15.37;12.50;;;;;;;;;;5053314;28;20217;-81
2023/01/25 01:58:26;;;;;;;15.43;12.13;;;;;;;;;;5071117;28;20186;-80
2023/01/25 02:00:52;;;;;;;13.40;11.20;;;;;;;;;;5073447;28;20703;-81
2023/01/25 02:03:19;;;;;;;14.67;11.53;;;;;;;;;;5072665;28;20206;-81
2023/01/25 02:05:48;;;;;;;14.87;11.27;;;;;;;;;;5061691;28;20222;-81
2023/01/25 02:08:15;;;;;;;13.20;10.50;;;;;;;;;;5055859;28;20565;-81
2023/01/25 02:10:41;;;;;;;11.67;9.43;;;;;;;;;;5056037;28;20643;-80
2023/01/25 02:13:08;;;;;;;10.40;8.90;;;;;;;;;;5073234;28;20577;-81
2023/01/25 02:15:38;;;;;;;12.73;9.43;;;;;;;;;;5051995;28;20301;-81
2023/01/25 02:18:04;;;;;;;11.97;10.17;;;;;;;;;;5051998;28;20188;-81
2023/01/25 02:20:40;;;;;;;14.50;11.10;;;;;;;;;;5071437;28;20188;-81
2023/01/25 02:23:06;;;;;;;16.07;11.77;;;;;;;;;;5057131;28;20189;-80
2023/01/25 02:25:32;;;;;;;14.17;11.33;;;;;;;;;;5054336;28;20195;-81
2023/01/25 02:31:01;;;;;;;12.23;9.53;;;;;;;;;;5068635;28;20614;-80
2023/01/25 02:33:27;;;;;;;13.57;10.60;;;;;;;;;;5086364;28;20206;-82
2023/01/25 02:35:58;;;;;;;14.50;10.97;;;;;;;;;;5054248;28;20591;-81
2023/01/25 02:38:24;;;;;;;13.80;10.73;;;;;;;;;;5085886;28;20192;-81
2023/01/25 02:40:57;;;;;;;12.83;10.80;;;;;;;;;;5067209;28;20275;-80
2023/01/25 02:43:24;;;;;;;12.57;10.13;;;;;;;;;;5053077;28;20378;-81
2023/01/25 02:45:54;;;;;;;14.67;10.07;;;;;;;;;;5054908;28;20188;-81
2023/01/25 02:48:20;;;;;;;10.73;9.07;;;;;;;;;;5069433;28;20189;-81
2023/01/25 02:50:46;;;;;;;11.93;9.50;;;;;;;;;;5053763;28;20227;-81
2023/01/25 02:53:12;;;;;;;12.53;9.20;;;;;;;;;;5071178;28;20188;-81
2023/01/25 02:55:38;;;;;;;9.73;8.37;;;;;;;;;;5053229;28;20304;-81
2023/01/25 02:58:04;;;;;;;10.27;8.20;;;;;;;;;;5053762;28;20172;-80
2023/01/25 03:00:30;;;;;;;9.60;8.13;;;;;;;;;;5055113;28;20644;-81
2023/01/25 03:02:56;;;;;;;9.83;8.53;;;;;;;;;;5071316;28;20189;-81
2023/01/25 03:05:22;;;;;;;9.73;8.73;;;;;;;;;;5069911;28;20572;-81
2023/01/25 03:07:48;;;;;;;9.10;8.07;;;;;;;;;;5071086;28;20588;-82
2023/01/25 03:10:14;;;;;;;11.50;7.97;;;;;;;;;;5053228;28;20196;-80
2023/01/25 03:12:40;;;;;;;9.53;7.43;;;;;;;;;;5054569;28;20876;-81
2023/01/25 03:15:07;;;;;;;8.77;7.30;;;;;;;;;;5053511;28;20209;-81
2023/01/25 03:17:33;;;;;;;10.43;7.47;;;;;;;;;;5054529;28;20212;-81
2023/01/25 03:19:59;;;;;;;8.93;7.17;;;;;;;;;;5056469;28;20596;-81
2023/01/25 03:22:25;;;;;;;8.40;7.17;;;;;;;;;;5052077;28;20178;-81
2023/01/25 03:24:51;;;;;;;8.53;7.20;;;;;;;;;;5054771;28;20688;-81
2023/01/25 03:27:17;;;;;;;8.27;6.73;;;;;;;;;;5069148;28;20199;-80
2023/01/25 03:29:43;;;;;;;8.13;6.70;;;;;;;;;;5053746;28;20185;-81
2023/01/25 03:32:10;;;;;;;10.80;7.90;;;;;;;;;;5070034;28;20180;-81
2023/01/25 03:34:36;;;;;;;9.63;7.83;;;;;;;;;;5052924;28;20224;-81
2023/01/25 03:37:02;;;;;;;10.33;8.40;;;;;;;;;;5053153;28;20270;-81
2023/01/25 03:39:28;;;;;;;10.13;8.33;;;;;;;;;;5071393;28;20169;-81
2023/01/25 03:41:54;;;;;;;11.27;9.07;;;;;;;;;;5054207;28;20216;-81
2023/01/25 03:44:20;;;;;;;12.73;9.77;;;;;;;;;;5053344;28;20615;-81
2023/01/25 03:46:46;;;;;;;10.97;8.97;;;;;;;;;;5053570;28;20181;-81
2023/01/25 03:49:12;;;;;;;10.93;9.27;;;;;;;;;;5070690;28;20269;-81
2023/01/25 03:51:38;;;;;;;12.63;9.77;;;;;;;;;;5052770;28;20267;-81
2023/01/25 03:54:04;;;;;;;12.70;10.30;;;;;;;;;;5068708;28;20185;-81
2023/01/25 03:56:30;;;;;;;14.43;11.10;;;;;;;;;;5066998;28;20346;-81
2023/01/25 03:58:56;;;;;;;12.67;10.30;;;;;;;;;;5052712;28;20259;-81
2023/01/25 04:01:22;;;;;;;14.77;11.73;;;;;;;;;;5051653;28;20618;-81
2023/01/25 04:03:48;;;;;;;14.60;11.47;;;;;;;;;;5053827;28;20184;-81
2023/01/25 04:06:14;;;;;;;17.27;12.40;;;;;;;;;;5052987;28;20192;-80
2023/01/25 04:08:40;;;;;;;16.10;12.00;;;;;;;;;;5055980;28;20760;-81
2023/01/25 04:11:07;;;;;;;13.70;11.00;;;;;;;;;;5049456;28;20284;-80
2023/01/25 04:13:35;;;;;;;14.33;11.93;;;;;;;;;;5054563;28;20211;-81
2023/01/25 04:16:01;;;;;;;14.77;12.37;;;;;;;;;;5053533;28;20672;-81
2023/01/25 04:18:27;;;;;;;15.63;12.37;;;;;;;;;;5085861;28;20189;-81
2023/01/25 04:20:53;;;;;;;14.63;12.90;;;;;;;;;;5052166;28;20204;-81
2023/01/25 04:23:19;;;;;;;15.97;12.87;;;;;;;;;;5069439;28;20169;-81
2023/01/25 04:25:55;;;;;;;16.90;13.10;;;;;;;;;;5052876;28;20249;-81
2023/01/25 04:28:21;;;;;;;16.77;13.10;;;;;;;;;;5069718;28;20231;-81
2023/01/25 04:30:47;;;;;;;17.60;13.97;;;;;;;;;;5053437;28;20330;-81
2023/01/25 04:33:14;;;;;;;19.73;15.03;;;;;;;;;;5052495;28;20222;-80
2023/01/25 04:35:40;;;;;;;16.17;14.17;;;;;;;;;;5069255;28;20208;-82
2023/01/25 04:38:06;;;;;;;22.37;15.37;;;;;;;;;;5053964;28;20189;-81
2023/01/25 04:40:32;;;;;;;18.83;15.03;;;;;;;;;;5050940;28;20177;-81
2023/01/25 04:42:58;;;;;;;18.67;14.70;;;;;;;;;;5069979;28;20634;-80
2023/01/25 04:45:24;;;;;;;19.60;15.10;;;;;;;;;;5052147;28;20199;-81
2023/01/25 04:47:55;;;;;;;21.13;16.37;;;;;;;;;;5053866;28;20177;-81
2023/01/25 04:50:21;;;;;;;23.03;15.67;;;;;;;;;;5068876;28;20220;-81
2023/01/25 04:52:47;;;;;;;19.33;15.13;;;;;;;;;;5051888;28;20185;-82
2023/01/25 04:55:13;;;;;;;18.83;15.03;;;;;;;;;;5052229;28;20204;-81
2023/01/25 04:57:39;;;;;;;21.17;15.40;;;;;;;;;;5063799;28;20637;-80
2023/01/25 05:00:05;;;;;;;18.53;15.50;;;;;;;;;;5057491;28;20190;-82
2023/01/25 05:02:32;;;;;;;22.47;16.27;;;;;;;;;;5049032;28;20270;-82
2023/01/25 05:04:57;;;;;;;20.43;16.57;;;;;;;;;;5040001;28;20192;-83
2023/01/25 05:07:23;;;;;;;20.07;16.40;;;;;;;;;;5052417;28;20223;-81
2023/01/25 05:09:49;;;;;;;22.00;16.67;;;;;;;;;;5050588;28;20178;-81
2023/01/25 05:12:15;;;;;;;21.80;17.20;;;;;;;;;;5050179;28;20648;-80
2023/01/25 05:14:41;;;;;;;22.97;18.17;;;;;;;;;;5052855;28;20209;-80
2023/01/25 05:17:08;;;;;;;23.77;17.47;;;;;;;;;;5071063;28;20240;-83
2023/01/25 05:19:34;;;;;;;22.40;17.37;;;;;;;;;;5050238;28;20242;-82
2023/01/25 05:22:01;;;;;;;23.27;16.33;;;;;;;;;;5072264;28;20172;-80
2023/01/25 05:24:32;;;;;;;24.60;18.70;;;;;;;;;;5057444;28;20184;-83
2023/01/25 05:27:04;;;;;;;26.70;20.57;;;;;;;;;;5057392;28;20185;-80
2023/01/25 05:29:35;;;;;;;26.13;20.53;;;;;;;;;;5058795;28;20236;-82
2023/01/25 05:32:01;;;;;;;30.17;22.20;;;;;;;;;;5072723;28;20192;-79
2023/01/25 05:34:27;;;;;;;30.23;22.90;;;;;;;;;;5073765;28;20175;-80
2023/01/25 05:36:53;;;;;;;33.83;21.53;;;;;;;;;;5054194;28;20170;-81
2023/01/25 05:39:20;;;;;;;29.47;21.47;;;;;;;;;;5052899;28;20605;-82
2023/01/25 05:41:45;;;;;;;31.40;24.27;;;;;;;;;;5064434;28;20227;-80
2023/01/25 05:44:11;;;;;;;32.03;24.37;;;;;;;;;;5071992;28;20269;-82
2023/01/25 05:46:37;;;;;;;33.20;25.40;;;;;;;;;;5055236;28;20645;-82
2023/01/25 05:49:04;;;;;;;32.83;25.03;;;;;;;;;;5053401;28;20228;-80
2023/01/25 05:51:30;;;;;;;37.40;28.03;;;;;;;;;;5055203;28;20191;-82
2023/01/25 05:53:56;;;;;;;44.30;31.83;;;;;;;;;;5056668;28;20196;-82
2023/01/25 05:56:22;;;;;;;42.47;31.33;;;;;;;;;;5056241;28;20209;-80
2023/01/25 05:58:55;;;;;;;43.63;31.40;;;;;;;;;;5052262;28;20195;-80
2023/01/25 06:01:21;;;;;;;44.13;31.80;;;;;;;;;;5055890;28;20191;-83
2023/01/25 06:03:47;;;;;;;42.07;31.00;;;;;;;;;;5071481;28;20173;-80
2023/01/25 06:06:14;;;;;;;38.63;30.07;;;;;;;;;;5059432;28;20241;-81
2023/01/25 06:08:40;;;;;;;39.90;30.13;;;;;;;;;;5055807;28;20191;-82
2023/01/25 06:11:09;;;;;;;45.60;31.87;;;;;;;;;;5055227;28;20284;-83
2023/01/25 06:13:36;;;;;;;41.20;30.97;;;;;;;;;;5055272;28;20173;-80
2023/01/25 06:16:02;;;;;;;44.43;31.23;;;;;;;;;;5056289;28;20204;-81
2023/01/25 06:18:29;;;;;;;43.87;31.63;;;;;;;;;;5057408;28;20191;-81
2023/01/25 06:20:58;;;;;;;41.77;31.17;;;;;;;;;;5088204;28;20252;-82
2023/01/25 06:23:25;;;;;;;45.87;31.60;;;;;;;;;;5055325;28;20265;-80
2023/01/25 06:25:52;;;;;;;42.47;32.10;;;;;;;;;;5070294;28;20588;-81
2023/01/25 06:28:19;;;;;;;38.17;29.57;;;;;;;;;;5073732;28;20184;-79
2023/01/25 06:30:44;;;;;;;41.63;30.97;;;;;;;;;;5072064;28;20184;-81
2023/01/25 06:33:10;;;;;;;42.00;30.43;;;;;;;;;;5071631;28;20199;-80
2023/01/25 06:35:39;;;;;;;43.20;32.20;;;;;;;;;;5055684;28;20289;-82
2023/01/25 06:38:05;;;;;;;42.47;32.23;;;;;;;;;;5071488;28;20180;-80
2023/01/25 06:40:31;;;;;;;37.93;30.07;;;;;;;;;;5072932;28;20229;-82
2023/01/25 06:43:11;;;;;;;44.03;30.93;;;;;;;;;;5055512;28;20249;-81
2023/01/25 06:45:37;;;;;;;41.13;29.07;;;;;;;;;;5052215;28;20177;-84
2023/01/25 06:48:03;;;;;;;40.07;29.27;;;;;;;;;;5071832;28;20196;-81
2023/01/25 06:50:29;;;;;;;47.20;32.00;;;;;;;;;;5071576;28;20751;-82
2023/01/25 06:52:56;;;;;;;42.10;31.37;;;;;;;;;;5053697;28;20228;-80
2023/01/25 06:55:22;;;;;;;41.33;29.17;;;;;;;;;;5053666;28;20267;-80
2023/01/25 06:57:49;;;;;;;42.87;30.77;;;;;;;;;;5055316;28;20652;-80
2023/01/25 07:00:16;;;;;;;40.97;30.00;;;;;;;;;;5068779;28;20191;-80
2023/01/25 07:02:42;;;;;;;41.87;30.17;;;;;;;;;;5069773;28;20185;-81
2023/01/25 07:05:08;;;;;;;37.97;27.80;;;;;;;;;;5051811;28;20190;-81
2023/01/25 07:07:35;;;;;;;45.67;31.67;;;;;;;;;;5066636;28;20276;-83
2023/01/25 07:10:01;;;;;;;44.17;29.33;;;;;;;;;;5070657;28;20204;-82
2023/01/25 07:12:30;;;;;;;41.90;30.33;;;;;;;;;;5049680;28;20238;-83
2023/01/25 07:14:56;;;;;;;41.10;30.07;;;;;;;;;;5058454;28;20913;-83
2023/01/25 07:17:22;;;;;;;44.17;30.87;;;;;;;;;;5054686;28;20267;-81
2023/01/25 07:19:48;;;;;;;46.27;32.60;;;;;;;;;;5070566;28;20273;-82
2023/01/25 07:22:14;;;;;;;41.10;28.97;;;;;;;;;;5072418;28;20176;-83
2023/01/25 07:24:40;;;;;;;45.13;31.20;;;;;;;;;;5048477;28;20214;-80
2023/01/25 07:27:06;;;;;;;44.83;31.37;;;;;;;;;;5072065;28;20308;-82
2023/01/25 07:29:32;;;;;;;47.13;32.60;;;;;;;;;;5051521;28;20267;-82
2023/01/25 07:31:58;;;;;;;49.10;33.87;;;;;;;;;;5054484;28;20172;-80
2023/01/25 07:34:24;;;;;;;43.17;31.07;;;;;;;;;;5054264;28;20173;-78
2023/01/25 07:36:50;;;;;;;45.33;32.10;;;;;;;;;;5068462;28;20177;-81
2023/01/25 07:39:16;;;;;;;47.27;32.00;;;;;;;;;;5070243;28;20602;-81
2023/01/25 07:41:42;;;;;;;46.70;31.43;;;;;;;;;;5072660;28;20184;-82
2023/01/25 07:44:09;;;;;;;45.70;32.47;;;;;;;;;;5055352;28;20203;-80
2023/01/25 07:46:35;;;;;;;47.17;31.13;;;;;;;;;;5071422;28;20259;-81
2023/01/25 07:49:01;;;;;;;47.43;32.60;;;;;;;;;;5054400;28;20773;-79
2023/01/25 07:51:29;;;;;;;45.63;31.70;;;;;;;;;;5055195;28;20193;-79
2023/01/25 07:53:59;;;;;;;45.93;32.60;;;;;;;;;;5053435;28;20583;-80
2023/01/25 07:56:27;;;;;;;47.30;33.53;;;;;;;;;;5054005;28;20212;-79
2023/01/25 07:58:54;;;;;;;48.67;33.23;;;;;;;;;;5051056;28;20536;-81
2023/01/25 08:01:20;;;;;;;43.40;30.73;;;;;;;;;;5072438;28;20179;-80
2023/01/25 08:03:47;;;;;;;47.50;31.43;;;;;;;;;;5054472;28;20177;-81
2023/01/25 08:06:13;;;;;;;49.87;33.47;;;;;;;;;;5070147;28;20181;-79
2023/01/25 08:08:41;;;;;;;44.60;31.53;;;;;;;;;;5054146;28;20697;-82
2023/01/25 08:11:12;;;;;;;51.17;33.47;;;;;;;;;;5053395;28;20229;-79
2023/01/25 08:13:38;;;;;;;46.87;33.57;;;;;;;;;;5054062;28;20175;-80
2023/01/25 08:16:05;;;;;;;49.70;34.80;;;;;;;;;;5054179;28;20227;-81
2023/01/25 08:18:30;;;;;;;48.30;33.30;;;;;;;;;;5053733;28;20190;-82
2023/01/25 08:21:00;;;;;;;44.07;32.87;;;;;;;;;;5070252;28;20260;-82
2023/01/25 08:23:28;;;;;;;49.13;34.67;;;;;;;;;;5053982;28;20645;-79
2023/01/25 08:25:55;;;;;;;51.00;36.03;;;;;;;;;;5050514;28;20638;-82
2023/01/25 08:28:21;;;;;;;50.20;35.67;;;;;;;;;;5071981;28;20182;-82
2023/01/25 08:30:47;;;;;;;48.97;34.97;;;;;;;;;;5054153;28;20180;-81
2023/01/25 08:33:13;;;;;;;49.93;34.97;;;;;;;;;;5054574;28;20230;-78
2023/01/25 08:35:39;;;;;;;46.27;31.73;;;;;;;;;;5068968;28;20290;-80
2023/01/25 08:38:05;;;;;;;54.47;37.03;;;;;;;;;;5070475;28;20263;-79
2023/01/25 08:40:31;;;;;;;51.63;36.93;;;;;;;;;;5052524;28;20176;-79
2023/01/25 08:42:57;;;;;;;47.97;35.23;;;;;;;;;;5053485;28;20542;-80
2023/01/25 08:45:23;;;;;;;43.77;33.63;;;;;;;;;;5069114;28;20222;-81
2023/01/25 08:47:49;;;;;;;51.43;34.87;;;;;;;;;;5069695;28;20214;-80
2023/01/25 08:50:15;;;;;;;52.17;37.07;;;;;;;;;;5048889;28;20228;-80
2023/01/25 08:52:41;;;;;;;49.47;33.80;;;;;;;;;;5050421;28;20176;-80
2023/01/25 08:55:07;;;;;;;48.87;34.57;;;;;;;;;;5048822;28;20562;-79
2023/01/25 08:58:04;;;;;;;48.90;34.40;;;;;;;;;;5053203;28;20664;-78
2023/01/25 09:00:30;;;;;;;51.87;36.77;;;;;;;;;;5088713;28;20204;-80
2023/01/25 09:02:57;;;;;;;53.00;36.17;;;;;;;;;;5074119;28;20711;-80
2023/01/25 09:05:23;;;;;;;53.10;35.87;;;;;;;;;;5057970;28;20209;-80
2023/01/25 09:07:49;;;;;;;53.80;36.53;;;;;;;;;;5064723;28;20181;-82
2023/01/25 09:10:15;;;;;;;56.10;37.17;;;;;;;;;;5073660;28;20177;-80
2023/01/25 09:12:41;;;;;;;51.53;34.93;;;;;;;;;;5063015;28;20225;-79
2023/01/25 09:15:07;;;;;;;47.37;33.43;;;;;;;;;;5062800;28;20212;-79
2023/01/25 09:17:37;;;;;;;53.40;38.27;;;;;;;;;;5056222;28;20184;-80
2023/01/25 09:20:03;;;;;;;64.10;43.13;;;;;;;;;;5045272;28;20217;-78
2023/01/25 09:22:30;;;;;;;63.77;41.83;;;;;;;;;;5057352;28;20169;-79
2023/01/25 09:24:56;;;;;;;60.03;40.40;;;;;;;;;;5071608;28;20666;-79
2023/01/25 09:27:22;;;;;;;55.93;37.73;;;;;;;;;;5072054;28;20188;-79
2023/01/25 09:29:48;;;;;;;57.13;39.23;;;;;;;;;;5061257;28;20176;-80
2023/01/25 09:32:14;;;;;;;61.07;39.83;;;;;;;;;;5057619;28;20230;-82
2023/01/25 09:34:40;;;;;;;56.17;38.13;;;;;;;;;;5056707;28;20617;-78
2023/01/25 09:37:06;;;;;;;58.37;39.27;;;;;;;;;;5074093;28;20180;-79
2023/01/25 09:39:32;;;;;;;57.37;37.80;;;;;;;;;;5055604;28;20185;-78
2023/01/25 09:42:07;;;;;;;60.67;40.97;;;;;;;;;;5070593;28;20217;-78
2023/01/25 09:44:48;;;;;;;63.03;41.43;;;;;;;;;;5045182;28;20190;-79
2023/01/25 09:47:26;;;;;;;66.00;41.70;;;;;;;;;;5068528;28;20181;-79
2023/01/25 09:50:11;;;;;;;59.80;40.30;;;;;;;;;;5055236;28;20735;-78
2023/01/25 09:52:55;;;;;;;59.03;39.27;;;;;;;;;;5069579;28;20255;-79
2023/01/25 09:55:23;;;;;;;55.83;38.40;;;;;;;;;;5071305;28;20211;-79
2023/01/25 09:57:52;;;;;;;62.10;41.63;;;;;;;;;;5055017;28;20267;-79
2023/01/25 10:00:22;;;;;;;65.80;41.93;;;;;;;;;;5054578;28;20215;-78
2023/01/25 10:03:10;;;;;;;61.20;40.23;;;;;;;;;;5055274;28;20515;-79
2023/01/25 10:05:42;;;;;;;60.67;41.40;;;;;;;;;;5056166;28;20858;-79
2023/01/25 10:08:13;;;;;;;61.57;40.83;;;;;;;;;;5051404;28;20540;-79
2023/01/25 10:10:41;;;;;;;58.90;40.20;;;;;;;;;;5054913;28;20174;-79
2023/01/25 10:13:18;;;;;;;62.93;41.47;;;;;;;;;;5069555;28;20234;-79
2023/01/25 10:15:49;;;;;;;67.03;43.43;;;;;;;;;;5054587;28;20214;-79
2023/01/25 10:18:18;;;;;;;65.60;41.03;;;;;;;;;;5069582;28;20641;-78
2023/01/25 10:20:44;;;;;;;58.83;40.03;;;;;;;;;;5056814;28;20258;-79
2023/01/25 10:23:25;;;;;;;59.73;41.10;;;;;;;;;;5051248;28;20221;-78
2023/01/25 10:25:57;;;;;;;61.87;40.60;;;;;;;;;;5072472;28;20188;-78
2023/01/25 10:28:36;;;;;;;56.40;38.50;;;;;;;;;;5071236;28;20192;-79
2023/01/25 10:31:10;;;;;;;59.80;38.67;;;;;;;;;;5054481;28;20181;-79
2023/01/25 10:33:38;;;;;;;58.57;38.13;;;;;;;;;;5055005;28;20544;-78
2023/01/25 10:36:04;;;;;;;55.97;40.73;;;;;;;;;;5054470;28;20226;-78
2023/01/25 10:38:36;;;;;;;56.53;37.90;;;;;;;;;;5084904;28;20215;-78
2023/01/25 10:41:12;;;;;;;58.80;41.53;;;;;;;;;;5085442;28;20279;-78
2023/01/25 10:43:38;;;;;;;56.63;38.90;;;;;;;;;;5051651;28;20173;-78
2023/01/25 10:46:10;;;;;;;58.97;39.40;;;;;;;;;;5070597;28;20188;-79
2023/01/25 10:48:36;;;;;;;57.40;38.47;;;;;;;;;;5059944;28;20189;-78
2023/01/25 10:51:02;;;;;;;57.77;39.60;;;;;;;;;;5068703;28;20734;-78
2023/01/25 10:53:33;;;;;;;56.90;35.60;;;;;;;;;;5053882;28;20198;-79
2023/01/25 10:56:08;;;;;;;46.03;31.97;;;;;;;;;;5071710;28;20226;-79
2023/01/25 10:58:34;;;;;;;50.50;33.67;;;;;;;;;;5055246;28;20183;-78
2023/01/25 11:01:01;;;;;;;50.73;34.87;;;;;;;;;;5056023;28;20246;-78
2023/01/25 11:03:34;;;;;;;55.40;36.00;;;;;;;;;;5056521;28;20181;-78
2023/01/25 11:06:00;;;;;;;54.37;35.83;;;;;;;;;;5053996;28;20650;-78
2023/01/25 11:08:32;;;;;;;53.50;35.07;;;;;;;;;;5053484;28;20238;-79
2023/01/25 11:10:58;;;;;;;56.10;36.60;;;;;;;;;;5053725;28;20187;-79
2023/01/25 11:13:26;;;;;;;54.00;35.90;;;;;;;;;;5054967;28;20177;-78
2023/01/25 11:15:54;;;;;;;51.50;34.63;;;;;;;;;;5053912;28;20216;-79
2023/01/25 11:18:20;;;;;;;55.70;35.23;;;;;;;;;;5052339;28;20189;-78
2023/01/25 11:20:46;;;;;;;51.30;33.87;;;;;;;;;;5055353;28;20250;-79
2023/01/25 11:23:25;;;;;;;53.00;35.27;;;;;;;;;;5052453;28;20190;-79
2023/01/25 11:25:51;;;;;;;53.83;34.67;;;;;;;;;;5052256;28;20187;-78
2023/01/25 11:28:17;;;;;;;57.90;37.10;;;;;;;;;;5053988;28;20233;-77
2023/01/25 11:30:44;;;;;;;60.43;36.80;;;;;;;;;;5053218;28;20653;-78
2023/01/25 11:33:11;;;;;;;59.73;36.70;;;;;;;;;;5053169;28;20219;-77
2023/01/25 11:35:42;;;;;;;57.77;36.67;;;;;;;;;;5070149;28;20581;-77
2023/01/25 11:38:17;;;;;;;54.87;35.90;;;;;;;;;;5068802;28;20540;-78
2023/01/25 11:40:49;;;;;;;58.43;36.00;;;;;;;;;;5067871;28;20254;-78
2023/01/25 11:43:18;;;;;;;61.07;37.50;;;;;;;;;;5051193;28;20180;-79
2023/01/25 11:45:51;;;;;;;63.13;39.97;;;;;;;;;;5069199;28;20184;-78
2023/01/25 11:48:24;;;;;;;60.57;37.67;;;;;;;;;;5053232;28;20549;-76
2023/01/25 11:50:50;;;;;;;62.17;39.10;;;;;;;;;;5068268;28;20580;-77
2023/01/25 11:53:19;;;;;;;67.53;41.73;;;;;;;;;;5051987;28;20178;-79
2023/01/25 11:55:57;;;;;;;68.33;40.57;;;;;;;;;;5071341;28;20218;-78
2023/01/25 11:58:23;;;;;;;70.40;41.47;;;;;;;;;;5064454;28;20625;-78
2023/01/25 12:01:08;;;;;;;65.23;40.23;;;;;;;;;;5053971;28;20188;-79
2023/01/25 12:03:40;;;;;;;64.27;42.60;;;;;;;;;;5052983;28;20377;-79
2023/01/25 12:06:23;;;;;;;69.10;44.90;;;;;;;;;;5052515;28;20189;-79
2023/01/25 12:09:07;;;;;;;75.43;44.57;;;;;;;;;;5086120;28;20277;-79
2023/01/25 12:11:51;;;;;;;64.07;41.63;;;;;;;;;;5068164;28;20668;-79
2023/01/25 12:14:27;;;;;;;66.57;40.87;;;;;;;;;;5052271;28;20272;-78
2023/01/25 12:16:53;;;;;;;68.80;41.63;;;;;;;;;;5052354;28;20218;-78
2023/01/25 12:19:25;;;;;;;71.37;42.87;;;;;;;;;;5049746;28;20169;-78
2023/01/25 12:21:51;;;;;;;65.47;40.07;;;;;;;;;;5049814;28;20733;-78
2023/01/25 12:24:26;;;;;;;65.10;41.37;;;;;;;;;;5072485;28;20276;-77
2023/01/25 12:26:55;;;;;;;70.50;47.33;;;;;;;;;;5052741;28;20185;-79
2023/01/25 12:29:33;;;;;;;69.67;41.33;;;;;;;;;;5052285;28;20649;-77
2023/01/25 12:32:02;;;;;;;63.20;39.60;;;;;;;;;;5072641;28;20500;-78
2023/01/25 12:34:35;;;;;;;68.97;43.63;;;;;;;;;;5056866;28;20180;-79
2023/01/25 12:37:05;;;;;;;67.83;43.43;;;;;;;;;;5071800;28;20726;-78
2023/01/25 12:39:34;;;;;;;75.40;43.57;;;;;;;;;;5056429;28;20731;-78
2023/01/25 12:42:19;;;;;;;67.77;41.83;;;;;;;;;;5055788;28;20202;-79
2023/01/25 12:44:58;;;;;;;68.57;41.97;;;;;;;;;;5059318;28;20637;-78
2023/01/25 12:47:36;;;;;;;69.53;40.97;;;;;;;;;;5054520;28;20704;-78
2023/01/25 12:50:14;;;;;;;71.80;41.60;;;;;;;;;;5055238;28;20230;-79
2023/01/25 12:52:45;;;;;;;69.27;43.63;;;;;;;;;;5074742;28;20175;-78
2023/01/25 12:55:15;;;;;;;66.20;42.63;;;;;;;;;;5071757;28;20216;-78
2023/01/25 12:58:00;;;;;;;70.13;42.07;;;;;;;;;;5056583;28;20232;-78
2023/01/25 13:00:35;;;;;;;63.67;40.43;;;;;;;;;;5055931;28;20708;-78
2023/01/25 13:03:09;;;;;;;62.80;39.77;;;;;;;;;;5055951;28;20216;-78
2023/01/25 13:05:47;;;;;;;69.33;39.70;;;;;;;;;;5056611;28;20278;-79
2023/01/25 13:08:14;;;;;;;64.03;39.43;;;;;;;;;;5070927;28;20273;-78
2023/01/25 13:10:47;;;;;;;62.57;39.30;;;;;;;;;;5056983;28;20599;-78
2023/01/25 13:13:21;;;;;;;63.03;39.33;;;;;;;;;;5052630;28;20554;-78
2023/01/25 13:15:47;;;;;;;64.17;40.10;;;;;;;;;;5055491;28;20216;-78
2023/01/25 13:18:28;;;;;;;68.70;43.50;;;;;;;;;;5055833;28;20192;-78
2023/01/25 13:20:54;;;;;;;71.93;42.97;;;;;;;;;;5056063;28;20540;-78
2023/01/25 13:23:30;;;;;;;74.23;45.93;;;;;;;;;;5054823;28;20177;-78
2023/01/25 13:26:15;;;;;;;71.10;44.63;;;;;;;;;;5054963;28;20692;-78
2023/01/25 13:28:42;;;;;;;64.07;41.30;;;;;;;;;;5073637;28;20170;-78
2023/01/25 13:31:08;;;;;;;67.37;41.13;;;;;;;;;;5055043;28;20194;-78
2023/01/25 13:33:35;;;;;;;66.40;42.83;;;;;;;;;;5064943;28;20839;-78
2023/01/25 13:36:20;;;;;;;70.27;44.80;;;;;;;;;;5071060;28;20690;-78
2023/01/25 13:38:46;;;;;;;68.07;43.47;;;;;;;;;;5055571;28;20192;-79
2023/01/25 13:41:15;;;;;;;64.27;39.47;;;;;;;;;;5054162;28;20188;-80
2023/01/25 13:43:42;;;;;;;51.10;35.73;;;;;;;;;;5052686;28;20588;-79
2023/01/25 13:46:10;;;;;;;62.37;39.23;;;;;;;;;;5054246;28;20189;-79
2023/01/25 13:48:44;;;;;;;57.30;37.27;;;;;;;;;;5088448;28;20553;-79
2023/01/25 13:51:14;;;;;;;51.77;34.30;;;;;;;;;;5036922;28;20612;-78
2023/01/25 13:53:40;;;;;;;49.13;33.83;;;;;;;;;;5050367;28;20193;-78
2023/01/25 13:56:23;;;;;;;47.37;32.90;;;;;;;;;;5051883;28;20259;-78
2023/01/25 13:58:49;;;;;;;45.30;32.77;;;;;;;;;;5047963;28;20212;-78
2023/01/25 14:01:17;;;;;;;46.03;31.70;;;;;;;;;;5017789;28;20178;-78
2023/01/25 14:03:44;;;;;;;47.43;32.57;;;;;;;;;;5047511;28;20186;-78
2023/01/25 14:06:22;;;;;;;45.93;32.07;;;;;;;;;;5034669;28;20189;-79
2023/01/25 14:08:48;;;;;;;50.20;33.17;;;;;;;;;;5033693;28;20639;-79
2023/01/25 14:11:28;;;;;;;50.23;33.30;;;;;;;;;;5032586;28;20182;-78
2023/01/25 14:14:14;;;;;;;48.10;33.77;;;;;;;;;;5034698;28;20176;-78
2023/01/25 14:16:40;;;;;;;49.20;34.07;;;;;;;;;;5035403;28;20209;-79
2023/01/25 14:19:23;;;;;;;55.30;37.13;;;;;;;;;;5048993;28;20192;-78
2023/01/25 14:21:49;;;;;;;55.40;37.40;;;;;;;;;;5032901;28;20192;-79
2023/01/25 14:24:18;;;;;;;51.40;34.67;;;;;;;;;;5034967;28;20189;-80
2023/01/25 14:26:46;;;;;;;53.10;35.67;;;;;;;;;;5044743;28;20667;-79
2023/01/25 14:29:16;;;;;;;51.63;36.70;;;;;;;;;;5042613;28;20200;-78